CheckWX is a tool to help pilots better visualize weather data.  It is not intended as a substitute for an official pre-flight weather briefing.

08:33:14 UTC

KAVL TAF
Asheville Regional Airport
Asheville, North Carolina, USA
KAVL 240538Z 2406/2506 17003KT P6SM SCT040 OVC070 FM241000 16003KT P6SM VCSH OVC040 PROB30 2415/2418 4SM -RA BR OVC025 FM241800 18005KT P6SM -RA OVC015 FM242000 15005KT 3SM -RA BR OVC008 FM250200 16005KT 2SM -RA BR OVC005

Feb-24@
06:00 UTC

Feb-24 @ 06:00 UTC

Feb-24@
10:00 UTC

Feb-24 @ 10:00 UTC

KAVL 240538Z 2406/2506 17003KT P6SM SCT040 OVC070
Wind
  • 170° at 3 KTS
Cloud Levels
  • Scattered at 4,000' AGL
  • Overcast at 7,000' AGL

Feb-24@
10:00 UTC

Feb-24 @ 10:00 UTC

Feb-24@
18:00 UTC

Feb-24 @ 18:00 UTC

FM241000 16003KT P6SM VCSH OVC040

From

From Standard forecast or significant change

Wind
  • 160° at 3 KTS
Cloud Levels
  • Overcast at 4,000' AGL

Feb-24@
15:00 UTC

Feb-24 @ 15:00 UTC

Feb-24@
18:00 UTC

Feb-24 @ 18:00 UTC

PROB30 2415/2418 4SM -RA BR OVC025

Probable - 30% Likelihood

Probable - 30% Likelihood during this time.

Conditions
Light Rain, Mist
Cloud Levels
  • Overcast at 2,500' AGL

Feb-24@
18:00 UTC

Feb-24 @ 18:00 UTC

Feb-24@
20:00 UTC

Feb-24 @ 20:00 UTC

FM241800 18005KT P6SM -RA OVC015

From

From Standard forecast or significant change

Wind
  • 180° at 5 KTS
Conditions
Light Rain
Cloud Levels
  • Overcast at 1,500' AGL

Feb-24@
20:00 UTC

Feb-24 @ 20:00 UTC

Feb-25@
02:00 UTC

Feb-25 @ 02:00 UTC

FM242000 15005KT 3SM -RA BR OVC008

From

From Standard forecast or significant change

Wind
  • 150° at 5 KTS
Conditions
Light Rain, Mist
Cloud Levels
  • Overcast at 800' AGL

Feb-25@
02:00 UTC

Feb-25 @ 02:00 UTC

Feb-25@
06:00 UTC

Feb-25 @ 06:00 UTC

FM250200 16005KT 2SM -RA BR OVC005

From

From Standard forecast or significant change

Wind
  • 160° at 5 KTS
Conditions
Light Rain, Mist
Cloud Levels
  • Overcast at 500' AGL